Time;durP1;ratioP1;P1;durP2;ratioP2;P2;SDS_P1;SDS_P2;PMS_P1;PMS_P2;Temp;Humidity;BMP_temperature;BMP_pressure;BME280_temperature;BME280_humidity;BME280_pressure;Samples;Min_cycle;Max_cycle;Signal;HPM_P1;HPM_P2
2022/07/15 00:00:04;;;;;;;;;;;;;;;;;;2141424;27;20316;-44
2022/07/15 00:01:05;;;;;;;;;;;;;;;;;;2141243;27;19969;-44
2022/07/15 00:02:06;;;;;;;;;;;;;;;;;;2141335;27;19967;-43
2022/07/15 00:03:07;;;;;;;;;;;;;;;;;;2141231;27;19961;-44
2022/07/15 00:04:09;;;;;;;;;;;;;;;;;;2141300;27;20010;-43
2022/07/15 00:05:10;;;;;;;;;;;;;;;;;;2141321;27;20005;-43
2022/07/15 00:06:11;;;;;;;;;;;;;;;;;;2141147;27;19972;-43
2022/07/15 00:07:13;;;;;;;;;;;;;;;;;;2141389;27;20422;-43
2022/07/15 00:08:14;;;;;;;;;;;;;;;;;;2141171;27;20461;-44
2022/07/15 00:09:14;;;;;;;;;;;;;;;;;;2141374;27;19926;-44
2022/07/15 00:10:15;;;;;;;;;;;;;;;;;;2141233;27;20296;-43
2022/07/15 00:11:16;;;;;;;;;;;;;;;;;;2138021;27;20328;-43
2022/07/15 00:12:17;;;;;;;;;;;;;;;;;;2132670;27;20010;-43
2022/07/15 00:13:18;;;;;;;;;;;;;;;;;;2132569;27;19981;-43
2022/07/15 00:14:19;;;;;;;;;;;;;;;;;;2132532;27;20324;-43
2022/07/15 00:15:20;;;;;;;;;;;;;;;;;;2132523;27;19968;-43
2022/07/15 00:16:21;;;;;;;;;;;;;;;;;;2131901;27;19968;-43
2022/07/15 00:17:22;;;;;;;;;;;;;;;;;;2132503;27;19962;-44
2022/07/15 00:18:22;;;;;;;;;;;;;;;;;;2132599;27;19997;-43
2022/07/15 00:19:24;;;;;;;;;;;;;;;;;;2132617;27;19923;-43
2022/07/15 00:20:25;;;;;;;;;;;;;;;;;;2132762;27;20320;-42
2022/07/15 00:21:25;;;;;;;;;;;;;;;;;;2132431;27;20015;-43
2022/07/15 00:22:26;;;;;;;;;;;;;;;;;;2132623;27;19962;-44
2022/07/15 00:23:27;;;;;;;;;;;;;;;;;;2132454;27;20348;-43
2022/07/15 00:24:28;;;;;;;;;;;;;;;;;;2132497;27;19929;-43
2022/07/15 00:25:29;;;;;;;;;;;;;;;;;;2132835;27;19923;-43
2022/07/15 00:26:30;;;;;;;;;;;;;;;;;;2132296;27;20377;-43
2022/07/15 00:27:36;;;;;;;;;;;;;;;;;;2132545;27;20390;-43
2022/07/15 00:28:37;;;;;;;;;;;;;;;;;;2132384;27;20017;-43
2022/07/15 00:29:38;;;;;;;;;;;;;;;;;;2132338;27;19930;-43
2022/07/15 00:30:39;;;;;;;;;;;;;;;;;;2135442;27;19930;-44
2022/07/15 00:31:40;;;;;;;;;;;;;;;;;;2140713;27;20397;-42
2022/07/15 00:32:41;;;;;;;;;;;;;;;;;;2141058;27;19922;-43
2022/07/15 00:33:42;;;;;;;;;;;;;;;;;;2141239;27;20072;-42
2022/07/15 00:34:42;;;;;;;;;;;;;;;;;;2141066;27;19975;-43
2022/07/15 00:35:43;;;;;;;;;;;;;;;;;;2141207;27;20026;-42
2022/07/15 00:36:44;;;;;;;;;;;;;;;;;;2141123;27;19922;-43
2022/07/15 00:37:46;;;;;;;;;;;;;;;;;;2140945;27;20272;-43
2022/07/15 00:38:48;;;;;;;;;;;;;;;;;;2141104;27;20039;-43
2022/07/15 00:39:49;;;;;;;;;;;;;;;;;;2141052;27;19969;-43
2022/07/15 00:40:49;;;;;;;;;;;;;;;;;;2141130;27;19930;-43
2022/07/15 00:41:51;;;;;;;;;;;;;;;;;;2141143;27;19929;-44
2022/07/15 00:42:51;;;;;;;;;;;;;;;;;;2141011;27;20459;-44
2022/07/15 00:43:52;;;;;;;;;;;;;;;;;;2140959;27;19995;-45
2022/07/15 00:44:53;;;;;;;;;;;;;;;;;;2140925;27;20009;-45
2022/07/15 00:45:54;;;;;;;;;;;;;;;;;;2140975;27;19923;-45
2022/07/15 00:46:55;;;;;;;;;;;;;;;;;;2141148;27;19950;-44
2022/07/15 00:47:56;;;;;;;;;;;;;;;;;;2140959;27;19923;-44
2022/07/15 00:48:57;;;;;;;;;;;;;;;;;;2140892;27;19930;-47
2022/07/15 00:49:58;;;;;;;;;;;;;;;;;;2140920;27;20435;-46
2022/07/15 00:50:59;;;;;;;;;;;;;;;;;;2140799;27;19923;-46
2022/07/15 00:52:00;;;;;;;;;;;;;;;;;;2140938;27;20013;-45
2022/07/15 00:53:01;;;;;;;;;;;;;;;;;;2140934;27;20011;-44
2022/07/15 00:54:02;;;;;;;;;;;;;;;;;;2140825;27;19937;-44
2022/07/15 00:55:03;;;;;;;;;;;;;;;;;;2141043;27;20014;-45
2022/07/15 00:56:04;;;;;;;;;;;;;;;;;;2140935;27;20377;-45
2022/07/15 00:57:04;;;;;;;;;;;;;;;;;;2140953;27;20321;-44
2022/07/15 00:58:05;;;;;;;;;;;;;;;;;;2140865;27;20013;-44
2022/07/15 00:59:06;;;;;;;;;;;;;;;;;;2140832;27;20010;-45
2022/07/15 01:00:08;;;;;;;;;;;;;;;;;;2140816;27;19923;-47
2022/07/15 01:01:09;;;;;;;;;;;;;;;;;;2140969;27;19937;-46
2022/07/15 01:02:10;;;;;;;;;;;;;;;;;;2140792;27;19922;-44
2022/07/15 01:03:11;;;;;;;;;;;;;;;;;;2140891;27;19975;-45
2022/07/15 01:04:13;;;;;;;;;;;;;;;;;;2140999;27;19931;-45
2022/07/15 01:05:13;;;;;;;;;;;;;;;;;;2140966;27;20014;-45
2022/07/15 01:06:14;;;;;;;;;;;;;;;;;;2140767;27;20014;-46
2022/07/15 01:07:15;;;;;;;;;;;;;;;;;;2140934;27;20010;-46
2022/07/15 01:08:17;;;;;;;;;;;;;;;;;;2140780;27;20302;-45
2022/07/15 01:09:19;;;;;;;;;;;;;;;;;;2140734;27;20021;-44
2022/07/15 01:10:20;;;;;;;;;;;;;;;;;;2140885;27;20474;-44
2022/07/15 01:11:21;;;;;;;;;;;;;;;;;;2136816;27;19931;-45
2022/07/15 01:12:22;;;;;;;;;;;;;;;;;;2132281;27;20035;-45
2022/07/15 01:13:23;;;;;;;;;;;;;;;;;;2132193;27;20013;-45
2022/07/15 01:14:24;;;;;;;;;;;;;;;;;;2132287;27;19923;-46
2022/07/15 01:15:25;;;;;;;;;;;;;;;;;;2132113;27;20353;-45
2022/07/15 01:16:26;;;;;;;;;;;;;;;;;;2132125;27;19961;-45
2022/07/15 01:17:27;;;;;;;;;;;;;;;;;;2132098;27;20311;-45
2022/07/15 01:18:27;;;;;;;;;;;;;;;;;;2132241;27;19955;-44
2022/07/15 01:19:28;;;;;;;;;;;;;;;;;;2132092;27;20436;-45
2022/07/15 01:20:29;;;;;;;;;;;;;;;;;;2132091;27;19923;-44
2022/07/15 01:21:30;;;;;;;;;;;;;;;;;;2132100;27;20010;-45
2022/07/15 01:22:31;;;;;;;;;;;;;;;;;;2132092;27;20388;-44
2022/07/15 01:23:32;;;;;;;;;;;;;;;;;;2132124;27;19966;-46
2022/07/15 01:24:33;;;;;;;;;;;;;;;;;;2132089;27;19930;-45
2022/07/15 01:25:34;;;;;;;;;;;;;;;;;;2132075;27;20463;-45
2022/07/15 01:26:35;;;;;;;;;;;;;;;;;;2132291;27;19923;-47
2022/07/15 01:27:35;;;;;;;;;;;;;;;;;;2139695;27;20446;-45
2022/07/15 01:28:36;;;;;;;;;;;;;;;;;;2140500;27;19970;-44
2022/07/15 01:29:37;;;;;;;;;;;;;;;;;;2140816;27;20006;-44
2022/07/15 01:30:38;;;;;;;;;;;;;;;;;;2140754;27;20313;-45
2022/07/15 01:31:39;;;;;;;;;;;;;;;;;;2140669;27;20013;-43
2022/07/15 01:32:40;;;;;;;;;;;;;;;;;;2140835;27;19922;-45
2022/07/15 01:33:41;;;;;;;;;;;;;;;;;;2140588;27;19962;-45
2022/07/15 01:34:42;;;;;;;;;;;;;;;;;;2140759;27;19991;-45
2022/07/15 01:35:43;;;;;;;;;;;;;;;;;;2140619;27;20288;-45
2022/07/15 01:36:44;;;;;;;;;;;;;;;;;;2140610;27;19954;-45
2022/07/15 01:37:44;;;;;;;;;;;;;;;;;;2140561;27;19922;-45
2022/07/15 01:38:45;;;;;;;;;;;;;;;;;;2140764;27;19930;-45
2022/07/15 01:39:50;;;;;;;;;;;;;;;;;;2140601;27;20335;-45
2022/07/15 01:40:51;;;;;;;;;;;;;;;;;;2140593;27;19982;-44
2022/07/15 01:41:52;;;;;;;;;;;;;;;;;;2140625;27;19961;-45
2022/07/15 01:42:53;;;;;;;;;;;;;;;;;;2140593;27;20137;-44
2022/07/15 01:43:54;;;;;;;;;;;;;;;;;;2140510;27;20017;-45
2022/07/15 01:44:54;;;;;;;;;;;;;;;;;;2140616;27;20017;-44
2022/07/15 01:45:55;;;;;;;;;;;;;;;;;;2140736;27;19958;-45
2022/07/15 01:46:56;;;;;;;;;;;;;;;;;;2140715;27;19966;-44
2022/07/15 01:47:57;;;;;;;;;;;;;;;;;;2140675;27;19958;-44
2022/07/15 01:50:17;;;;;;;;;;;;;;;;;;2140563;27;20450;-44
2022/07/15 01:51:18;;;;;;;;;;;;;;;;;;2140389;27;19922;-45
2022/07/15 01:52:19;;;;;;;;;;;;;;;;;;2140498;27;20069;-44
2022/07/15 01:53:20;;;;;;;;;;;;;;;;;;2140694;27;19971;-44
2022/07/15 01:54:21;;;;;;;;;;;;;;;;;;2140493;27;20021;-45
2022/07/15 01:55:22;;;;;;;;;;;;;;;;;;2140512;27;19930;-45
2022/07/15 01:56:23;;;;;;;;;;;;;;;;;;2140530;27;19929;-45
2022/07/15 01:57:24;;;;;;;;;;;;;;;;;;2140618;27;19922;-44
2022/07/15 01:58:25;;;;;;;;;;;;;;;;;;2140435;27;20071;-44
2022/07/15 01:59:26;;;;;;;;;;;;;;;;;;2140484;27;19978;-45
2022/07/15 02:00:27;;;;;;;;;;;;;;;;;;2140501;27;20009;-45
2022/07/15 02:01:28;;;;;;;;;;;;;;;;;;2140488;27;20275;-45
2022/07/15 02:02:29;;;;;;;;;;;;;;;;;;2140436;27;20045;-45
2022/07/15 02:03:30;;;;;;;;;;;;;;;;;;2140656;27;20016;-43
2022/07/15 02:04:31;;;;;;;;;;;;;;;;;;2140427;27;20110;-44
2022/07/15 02:05:32;;;;;;;;;;;;;;;;;;2140440;27;19929;-43
2022/07/15 02:06:33;;;;;;;;;;;;;;;;;;2140457;27;19974;-44
2022/07/15 02:07:34;;;;;;;;;;;;;;;;;;2140371;27;19975;-44
2022/07/15 02:08:34;;;;;;;;;;;;;;;;;;2140393;27;19977;-43
2022/07/15 02:09:35;;;;;;;;;;;;;;;;;;2140433;27;19923;-45
2022/07/15 02:10:39;;;;;;;;;;;;;;;;;;2140268;27;20022;-43
2022/07/15 02:11:40;;;;;;;;;;;;;;;;;;2133810;27;20407;-44
2022/07/15 02:12:41;;;;;;;;;;;;;;;;;;2131932;27;19952;-45
2022/07/15 02:13:42;;;;;;;;;;;;;;;;;;2131900;27;19923;-45
2022/07/15 02:14:43;;;;;;;;;;;;;;;;;;2131913;27;20025;-45
2022/07/15 02:15:44;;;;;;;;;;;;;;;;;;2132017;27;19945;-44
2022/07/15 02:16:44;;;;;;;;;;;;;;;;;;2131741;27;19950;-44
2022/07/15 02:17:45;;;;;;;;;;;;;;;;;;2131779;27;20395;-45
2022/07/15 02:18:46;;;;;;;;;;;;;;;;;;2131784;27;19931;-45
2022/07/15 02:19:48;;;;;;;;;;;;;;;;;;2131747;27;19929;-44
2022/07/15 02:20:49;;;;;;;;;;;;;;;;;;2131774;27;20064;-45
2022/07/15 02:21:50;;;;;;;;;;;;;;;;;;2131733;27;19923;-46
2022/07/15 02:22:50;;;;;;;;;;;;;;;;;;2132178;27;20419;-45
2022/07/15 02:23:52;;;;;;;;;;;;;;;;;;2140257;27;19954;-45
2022/07/15 02:24:53;;;;;;;;;;;;;;;;;;2140552;27;20013;-44
2022/07/15 02:25:54;;;;;;;;;;;;;;;;;;2140251;27;19929;-44
2022/07/15 02:26:55;;;;;;;;;;;;;;;;;;2140677;27;19953;-43
2022/07/15 02:27:56;;;;;;;;;;;;;;;;;;2140350;27;20287;-44
2022/07/15 02:28:57;;;;;;;;;;;;;;;;;;2140286;27;20071;-43
2022/07/15 02:29:58;;;;;;;;;;;;;;;;;;2140478;27;20484;-43
2022/07/15 02:30:59;;;;;;;;;;;;;;;;;;2140319;27;19966;-43
2022/07/15 02:32:00;;;;;;;;;;;;;;;;;;2140140;27;19929;-43
2022/07/15 02:33:01;;;;;;;;;;;;;;;;;;2140332;27;20299;-42
2022/07/15 02:34:02;;;;;;;;;;;;;;;;;;2140239;27;20025;-42
2022/07/15 02:35:03;;;;;;;;;;;;;;;;;;2140309;27;20009;-42
2022/07/15 02:36:04;;;;;;;;;;;;;;;;;;2140498;27;19926;-43
2022/07/15 02:37:05;;;;;;;;;;;;;;;;;;2140443;27;20045;-44
2022/07/15 02:38:06;;;;;;;;;;;;;;;;;;2140159;27;19923;-45
2022/07/15 02:39:07;;;;;;;;;;;;;;;;;;2141428;27;20013;-44
2022/07/15 02:40:08;;;;;;;;;;;;;;;;;;2143143;27;19923;-44
2022/07/15 02:41:11;;;;;;;;;;;;;;;;;;2143064;27;19929;-46
2022/07/15 02:42:12;;;;;;;;;;;;;;;;;;2143136;27;19946;-44
2022/07/15 02:43:13;;;;;;;;;;;;;;;;;;2143198;27;19922;-45
2022/07/15 02:44:14;;;;;;;;;;;;;;;;;;2143200;27;20419;-45
2022/07/15 02:45:15;;;;;;;;;;;;;;;;;;2143070;27;19930;-47
2022/07/15 02:46:16;;;;;;;;;;;;;;;;;;2143083;27;19923;-44
2022/07/15 02:47:17;;;;;;;;;;;;;;;;;;2143072;27;20309;-44
2022/07/15 02:48:18;;;;;;;;;;;;;;;;;;2143293;27;20022;-43
2022/07/15 02:49:19;;;;;;;;;;;;;;;;;;2143085;27;19958;-44
2022/07/15 02:50:20;;;;;;;;;;;;;;;;;;2143084;27;19961;-44
2022/07/15 02:51:21;;;;;;;;;;;;;;;;;;2142938;27;19987;-45
2022/07/15 02:52:21;;;;;;;;;;;;;;;;;;2143181;27;20499;-43
2022/07/15 02:53:28;;;;;;;;;;;;;;;;;;2143300;27;19967;-44
2022/07/15 02:54:29;;;;;;;;;;;;;;;;;;2143121;27;20033;-43
2022/07/15 02:55:30;;;;;;;;;;;;;;;;;;2143345;27;20298;-45
2022/07/15 02:56:31;;;;;;;;;;;;;;;;;;2143235;27;19922;-43
2022/07/15 02:57:31;;;;;;;;;;;;;;;;;;2143096;27;19930;-42
2022/07/15 02:58:32;;;;;;;;;;;;;;;;;;2143075;27;19933;-43
2022/07/15 02:59:33;;;;;;;;;;;;;;;;;;2143034;27;20040;-43
2022/07/15 03:00:34;;;;;;;;;;;;;;;;;;2143133;27;19982;-43
2022/07/15 03:01:35;;;;;;;;;;;;;;;;;;2142859;27;19983;-43
2022/07/15 03:02:37;;;;;;;;;;;;;;;;;;2142997;27;20294;-43
2022/07/15 03:03:38;;;;;;;;;;;;;;;;;;2143145;27;19923;-45
2022/07/15 03:04:39;;;;;;;;;;;;;;;;;;2142873;27;20244;-45
2022/07/15 03:05:40;;;;;;;;;;;;;;;;;;2143049;27;19926;-44
2022/07/15 03:06:41;;;;;;;;;;;;;;;;;;2143277;27;19922;-43
2022/07/15 03:07:42;;;;;;;;;;;;;;;;;;2142849;27;19923;-43
2022/07/15 03:08:43;;;;;;;;;;;;;;;;;;2143266;27;19926;-44
2022/07/15 03:09:44;;;;;;;;;;;;;;;;;;2143159;27;20031;-44
2022/07/15 03:10:45;;;;;;;;;;;;;;;;;;2142849;27;19967;-44
2022/07/15 03:11:46;;;;;;;;;;;;;;;;;;2135333;27;20275;-45
2022/07/15 03:12:47;;;;;;;;;;;;;;;;;;2134719;27;19961;-44
2022/07/15 03:13:47;;;;;;;;;;;;;;;;;;2134329;27;20022;-44
2022/07/15 03:14:48;;;;;;;;;;;;;;;;;;2134406;27;19945;-46
2022/07/15 03:15:49;;;;;;;;;;;;;;;;;;2134487;27;20372;-45
2022/07/15 03:16:50;;;;;;;;;;;;;;;;;;2134583;27;19930;-46
2022/07/15 03:17:51;;;;;;;;;;;;;;;;;;2134666;27;20005;-47
2022/07/15 03:18:52;;;;;;;;;;;;;;;;;;2134450;27;20359;-46
2022/07/15 03:19:55;;;;;;;;;;;;;;;;;;2141425;27;19926;-45
2022/07/15 03:20:56;;;;;;;;;;;;;;;;;;2134109;27;20470;-47
2022/07/15 03:21:56;;;;;;;;;;;;;;;;;;2134232;27;20018;-45
2022/07/15 03:22:57;;;;;;;;;;;;;;;;;;2134321;27;19965;-44
2022/07/15 03:23:58;;;;;;;;;;;;;;;;;;2134195;27;20028;-45
2022/07/15 03:24:59;;;;;;;;;;;;;;;;;;2134243;27;20014;-46
2022/07/15 03:26:00;;;;;;;;;;;;;;;;;;2134541;27;19938;-44
2022/07/15 03:27:01;;;;;;;;;;;;;;;;;;2134704;27;19911;-44
2022/07/15 03:28:02;;;;;;;;;;;;;;;;;;2134306;27;19922;-44
2022/07/15 03:29:04;;;;;;;;;;;;;;;;;;2134143;27;19927;-43
2022/07/15 03:30:05;;;;;;;;;;;;;;;;;;2134191;27;20393;-44
2022/07/15 03:31:06;;;;;;;;;;;;;;;;;;2134306;27;20021;-45
2022/07/15 03:32:07;;;;;;;;;;;;;;;;;;2133991;27;19922;-45
2022/07/15 03:33:08;;;;;;;;;;;;;;;;;;2134223;27;20011;-44
2022/07/15 03:34:09;;;;;;;;;;;;;;;;;;2134313;27;20018;-45
2022/07/15 03:35:10;;;;;;;;;;;;;;;;;;2134204;27;19969;-46
2022/07/15 03:36:11;;;;;;;;;;;;;;;;;;2134150;27;19931;-46
2022/07/15 03:37:12;;;;;;;;;;;;;;;;;;2134177;27;19924;-45
2022/07/15 03:38:13;;;;;;;;;;;;;;;;;;2134379;27;19970;-45
2022/07/15 03:39:14;;;;;;;;;;;;;;;;;;2134218;27;20038;-45
2022/07/15 03:40:15;;;;;;;;;;;;;;;;;;2134229;27;20002;-45
2022/07/15 03:41:16;;;;;;;;;;;;;;;;;;2134116;27;19927;-48
2022/07/15 03:42:17;;;;;;;;;;;;;;;;;;2134114;27;19923;-45
2022/07/15 03:43:18;;;;;;;;;;;;;;;;;;2134349;27;19969;-44
2022/07/15 03:44:19;;;;;;;;;;;;;;;;;;2134352;27;20019;-43
2022/07/15 03:45:20;;;;;;;;;;;;;;;;;;2134352;27;20428;-44
2022/07/15 03:46:20;;;;;;;;;;;;;;;;;;2134123;27;19995;-44
2022/07/15 03:47:21;;;;;;;;;;;;;;;;;;2134237;27;20288;-46
2022/07/15 03:48:22;;;;;;;;;;;;;;;;;;2134426;27;20371;-43
2022/07/15 03:49:23;;;;;;;;;;;;;;;;;;2134459;27;19976;-43
2022/07/15 03:50:24;;;;;;;;;;;;;;;;;;2133447;27;19923;-43
2022/07/15 03:51:25;;;;;;;;;;;;;;;;;;2131934;27;20415;-44
2022/07/15 03:52:26;;;;;;;;;;;;;;;;;;2132647;27;20335;-43
2022/07/15 03:53:27;;;;;;;;;;;;;;;;;;2132584;27;20026;-44
2022/07/15 03:54:28;;;;;;;;;;;;;;;;;;2132993;27;19923;-44
2022/07/15 03:55:29;;;;;;;;;;;;;;;;;;2132678;27;19938;-45
2022/07/15 03:56:29;;;;;;;;;;;;;;;;;;2132470;27;19923;-45
2022/07/15 03:57:30;;;;;;;;;;;;;;;;;;2132708;27;19938;-45
2022/07/15 03:58:31;;;;;;;;;;;;;;;;;;2132817;27;20418;-46
2022/07/15 03:59:32;;;;;;;;;;;;;;;;;;2132658;27;19965;-47
2022/07/15 04:00:33;;;;;;;;;;;;;;;;;;2132912;27;19927;-48
2022/07/15 04:01:34;;;;;;;;;;;;;;;;;;2132543;27;20367;-45
2022/07/15 04:02:35;;;;;;;;;;;;;;;;;;2132706;27;20362;-44
2022/07/15 04:03:36;;;;;;;;;;;;;;;;;;2133166;27;20014;-47
2022/07/15 04:04:37;;;;;;;;;;;;;;;;;;2132577;27;20006;-46
2022/07/15 04:05:38;;;;;;;;;;;;;;;;;;2132538;27;20030;-47
2022/07/15 04:06:39;;;;;;;;;;;;;;;;;;2132931;27;20018;-45
2022/07/15 04:07:40;;;;;;;;;;;;;;;;;;2132634;27;20442;-45
2022/07/15 04:08:40;;;;;;;;;;;;;;;;;;2132533;27;19923;-45
2022/07/15 04:09:41;;;;;;;;;;;;;;;;;;2132563;27;19923;-46
2022/07/15 04:10:42;;;;;;;;;;;;;;;;;;2132812;27;20494;-48
2022/07/15 04:11:43;;;;;;;;;;;;;;;;;;2139160;27;20010;-47
2022/07/15 04:12:44;;;;;;;;;;;;;;;;;;2141346;27;19930;-48
2022/07/15 04:13:46;;;;;;;;;;;;;;;;;;2141346;27;19923;-46
2022/07/15 04:14:47;;;;;;;;;;;;;;;;;;2141211;27;20382;-47
2022/07/15 04:15:48;;;;;;;;;;;;;;;;;;2140973;27;19962;-47
2022/07/15 04:16:49;;;;;;;;;;;;;;;;;;2140984;27;19922;-46
2022/07/15 04:17:50;;;;;;;;;;;;;;;;;;2141314;27;19930;-47
2022/07/15 04:18:51;;;;;;;;;;;;;;;;;;2141356;27;19965;-45
2022/07/15 04:19:52;;;;;;;;;;;;;;;;;;2141305;27;20335;-46
2022/07/15 04:20:53;;;;;;;;;;;;;;;;;;2141246;27;19927;-46
2022/07/15 04:21:54;;;;;;;;;;;;;;;;;;2141365;27;19971;-47
2022/07/15 04:22:55;;;;;;;;;;;;;;;;;;2141673;27;19930;-46
2022/07/15 04:23:55;;;;;;;;;;;;;;;;;;2141098;27;20265;-46
2022/07/15 04:24:56;;;;;;;;;;;;;;;;;;2141112;27;19930;-46
2022/07/15 04:25:57;;;;;;;;;;;;;;;;;;2140969;27;20031;-46
2022/07/15 04:26:58;;;;;;;;;;;;;;;;;;2141517;27;19971;-47
2022/07/15 04:27:59;;;;;;;;;;;;;;;;;;2141138;27;20560;-46
2022/07/15 04:29:00;;;;;;;;;;;;;;;;;;2141206;27;19934;-45
2022/07/15 04:30:01;;;;;;;;;;;;;;;;;;2140976;27;19923;-45
2022/07/15 04:31:02;;;;;;;;;;;;;;;;;;2141323;27;19923;-45
2022/07/15 04:32:02;;;;;;;;;;;;;;;;;;2141295;27;19927;-45
2022/07/15 04:33:03;;;;;;;;;;;;;;;;;;2141124;27;20184;-46
2022/07/15 04:34:04;;;;;;;;;;;;;;;;;;2141293;27;19990;-45
2022/07/15 04:35:05;;;;;;;;;;;;;;;;;;2141352;27;19926;-45
2022/07/15 04:36:06;;;;;;;;;;;;;;;;;;2140856;27;20010;-45
2022/07/15 04:37:07;;;;;;;;;;;;;;;;;;2141210;27;20064;-46
2022/07/15 04:38:08;;;;;;;;;;;;;;;;;;2141319;27;20014;-45
2022/07/15 04:39:09;;;;;;;;;;;;;;;;;;2140928;27;19922;-46
2022/07/15 04:40:10;;;;;;;;;;;;;;;;;;2141573;27;20025;-47
2022/07/15 04:41:11;;;;;;;;;;;;;;;;;;2141146;27;19922;-46
2022/07/15 04:42:12;;;;;;;;;;;;;;;;;;2141024;27;19923;-45
2022/07/15 04:43:14;;;;;;;;;;;;;;;;;;2141190;27;19926;-45
2022/07/15 04:44:16;;;;;;;;;;;;;;;;;;2141108;27;20037;-45
2022/07/15 04:45:16;;;;;;;;;;;;;;;;;;2141166;27;20005;-46
2022/07/15 04:46:17;;;;;;;;;;;;;;;;;;2140884;27;19957;-44
2022/07/15 04:47:18;;;;;;;;;;;;;;;;;;2141132;27;20034;-45
2022/07/15 04:50:57;;;;;;;;;;;;;;;;;;2141019;27;20013;-46
2022/07/15 04:51:58;;;;;;;;;;;;;;;;;;2140863;27;20299;-46
2022/07/15 04:52:59;;;;;;;;;;;;;;;;;;2141035;27;19958;-46
2022/07/15 04:54:00;;;;;;;;;;;;;;;;;;2140948;27;19958;-46
2022/07/15 04:55:08;;;;;;;;;;;;;;;;;;2140966;27;20294;-46
2022/07/15 04:56:09;;;;;;;;;;;;;;;;;;2140751;27;19923;-46
2022/07/15 04:57:11;;;;;;;;;;;;;;;;;;2140984;27;19962;-45
2022/07/15 04:58:14;;;;;;;;;;;;;;;;;;2141067;27;19926;-47
2022/07/15 04:59:15;;;;;;;;;;;;;;;;;;2140838;27;20272;-46
2022/07/15 05:00:15;;;;;;;;;;;;;;;;;;2141175;27;19965;-44
2022/07/15 05:01:16;;;;;;;;;;;;;;;;;;2140725;27;19923;-44
2022/07/15 05:02:18;;;;;;;;;;;;;;;;;;2140885;27;19927;-45
2022/07/15 05:03:19;;;;;;;;;;;;;;;;;;2141128;27;20026;-47
2022/07/15 05:04:19;;;;;;;;;;;;;;;;;;2141133;27;20001;-45
2022/07/15 05:05:20;;;;;;;;;;;;;;;;;;2141254;27;19922;-45
2022/07/15 05:06:21;;;;;;;;;;;;;;;;;;2140920;27;20371;-45
2022/07/15 05:07:22;;;;;;;;;;;;;;;;;;2140869;27;19922;-46
2022/07/15 05:08:23;;;;;;;;;;;;;;;;;;2140746;27;20470;-46
2022/07/15 05:09:24;;;;;;;;;;;;;;;;;;2141192;27;19929;-47
2022/07/15 05:10:25;;;;;;;;;;;;;;;;;;2140918;27;19926;-48
2022/07/15 05:11:26;;;;;;;;;;;;;;;;;;2136245;27;20005;-46
2022/07/15 05:12:26;;;;;;;;;;;;;;;;;;2139674;27;19923;-46
2022/07/15 05:13:27;;;;;;;;;;;;;;;;;;2140698;27;20359;-47
2022/07/15 05:14:28;;;;;;;;;;;;;;;;;;2140797;27;20017;-46
2022/07/15 05:15:29;;;;;;;;;;;;;;;;;;2140800;27;19971;-47
2022/07/15 05:16:30;;;;;;;;;;;;;;;;;;2140952;27;19929;-45
2022/07/15 05:17:31;;;;;;;;;;;;;;;;;;2141568;27;19923;-46
2022/07/15 05:18:32;;;;;;;;;;;;;;;;;;2141227;27;19934;-46
2022/07/15 05:19:33;;;;;;;;;;;;;;;;;;2140705;27;20382;-46
2022/07/15 05:20:34;;;;;;;;;;;;;;;;;;2140999;27;19961;-47
2022/07/15 05:21:35;;;;;;;;;;;;;;;;;;2140691;27;19961;-46
2022/07/15 05:22:36;;;;;;;;;;;;;;;;;;2140829;27;20002;-46
2022/07/15 05:23:37;;;;;;;;;;;;;;;;;;2140761;27;20189;-48
2022/07/15 05:24:38;;;;;;;;;;;;;;;;;;2140948;27;20009;-45
2022/07/15 05:25:39;;;;;;;;;;;;;;;;;;2140908;27;19930;-46
2022/07/15 05:26:39;;;;;;;;;;;;;;;;;;2140628;27;19922;-46
2022/07/15 05:27:45;;;;;;;;;;;;;;;;;;2140771;27;19923;-44
2022/07/15 05:28:46;;;;;;;;;;;;;;;;;;2140581;27;19967;-45
2022/07/15 05:29:47;;;;;;;;;;;;;;;;;;2140910;27;20063;-45
2022/07/15 05:30:48;;;;;;;;;;;;;;;;;;2140653;27;19962;-44
2022/07/15 05:31:49;;;;;;;;;;;;;;;;;;2140601;27;20406;-44
2022/07/15 05:32:50;;;;;;;;;;;;;;;;;;2140632;27;19930;-44
2022/07/15 05:33:52;;;;;;;;;;;;;;;;;;2140939;27;19971;-44
2022/07/15 05:34:53;;;;;;;;;;;;;;;;;;2140578;27;20006;-44
2022/07/15 05:35:54;;;;;;;;;;;;;;;;;;2140830;27;20451;-46
2022/07/15 05:36:55;;;;;;;;;;;;;;;;;;2140903;27;19929;-50
2022/07/15 05:37:56;;;;;;;;;;;;;;;;;;2141194;27;20303;-45
2022/07/15 05:38:57;;;;;;;;;;;;;;;;;;2140633;27;19930;-45
2022/07/15 05:39:58;;;;;;;;;;;;;;;;;;2141401;27;19923;-45
2022/07/15 05:40:59;;;;;;;;;;;;;;;;;;2140382;27;19922;-45
2022/07/15 05:42:00;;;;;;;;;;;;;;;;;;2140746;27;20335;-45
2022/07/15 05:43:01;;;;;;;;;;;;;;;;;;2140912;27;19929;-45
2022/07/15 05:44:02;;;;;;;;;;;;;;;;;;2140547;27;19946;-45
2022/07/15 05:45:02;;;;;;;;;;;;;;;;;;2140640;27;19926;-47
2022/07/15 05:46:03;;;;;;;;;;;;;;;;;;2140931;27;20009;-47
2022/07/15 05:47:04;;;;;;;;;;;;;;;;;;2140644;27;20021;-46
2022/07/15 05:48:05;;;;;;;;;;;;;;;;;;2140672;27;19974;-47
2022/07/15 05:49:06;;;;;;;;;;;;;;;;;;2140750;27;19927;-48
2022/07/15 05:50:07;;;;;;;;;;;;;;;;;;2140490;27;19927;-47
2022/07/15 05:51:08;;;;;;;;;;;;;;;;;;2140595;27;19929;-48
2022/07/15 05:52:09;;;;;;;;;;;;;;;;;;2140610;27;20603;-47
2022/07/15 05:53:10;;;;;;;;;;;;;;;;;;2141100;27;20009;-46
2022/07/15 05:54:13;;;;;;;;;;;;;;;;;;2140947;27;19922;-48
2022/07/15 05:55:14;;;;;;;;;;;;;;;;;;2140557;27;20378;-52
2022/07/15 05:56:15;;;;;;;;;;;;;;;;;;2140542;27;19927;-51
2022/07/15 05:57:16;;;;;;;;;;;;;;;;;;2140541;27;20009;-48
2022/07/15 05:58:16;;;;;;;;;;;;;;;;;;2140924;27;20009;-45
2022/07/15 05:59:17;;;;;;;;;;;;;;;;;;2140491;27;20458;-45
2022/07/15 06:00:19;;;;;;;;;;;;;;;;;;2140783;27;19966;-48
2022/07/15 06:01:21;;;;;;;;;;;;;;;;;;2140671;27;19923;-48
2022/07/15 06:02:22;;;;;;;;;;;;;;;;;;2140574;27;19982;-46
2022/07/15 06:03:23;;;;;;;;;;;;;;;;;;2140804;27;19930;-47
2022/07/15 06:04:26;;;;;;;;;;;;;;;;;;2140874;27;20026;-48
2022/07/15 06:05:27;;;;;;;;;;;;;;;;;;2140576;27;19929;-47
2022/07/15 06:06:28;;;;;;;;;;;;;;;;;;2140419;27;20017;-48
2022/07/15 06:07:28;;;;;;;;;;;;;;;;;;2140451;27;19954;-48
2022/07/15 06:08:29;;;;;;;;;;;;;;;;;;2140056;27;20459;-48
2022/07/15 06:09:30;;;;;;;;;;;;;;;;;;2140737;27;19963;-47
2022/07/15 06:10:31;;;;;;;;;;;;;;;;;;2140505;27;20009;-47
2022/07/15 06:11:33;;;;;;;;;;;;;;;;;;2134815;27;19958;-47
2022/07/15 06:12:34;;;;;;;;;;;;;;;;;;2131686;27;20022;-47
2022/07/15 06:13:35;;;;;;;;;;;;;;;;;;2131664;27;19923;-45
2022/07/15 06:14:36;;;;;;;;;;;;;;;;;;2131405;27;19976;-46
2022/07/15 06:15:38;;;;;;;;;;;;;;;;;;2132135;27;19929;-45
2022/07/15 06:16:39;;;;;;;;;;;;;;;;;;2132471;27;20006;-46
2022/07/15 06:17:40;;;;;;;;;;;;;;;;;;2131778;27;20296;-49
2022/07/15 06:18:41;;;;;;;;;;;;;;;;;;2132063;27;19968;-47
2022/07/15 06:19:42;;;;;;;;;;;;;;;;;;2131945;27;19930;-47
2022/07/15 06:20:43;;;;;;;;;;;;;;;;;;2132029;27;20176;-45
2022/07/15 06:21:44;;;;;;;;;;;;;;;;;;2131639;27;19927;-46
2022/07/15 06:22:45;;;;;;;;;;;;;;;;;;2131898;27;19923;-48
2022/07/15 06:23:46;;;;;;;;;;;;;;;;;;2132056;27;20374;-47
2022/07/15 06:24:47;;;;;;;;;;;;;;;;;;2132387;27;19923;-48
2022/07/15 06:25:48;;;;;;;;;;;;;;;;;;2131687;27;20317;-49
2022/07/15 06:26:48;;;;;;;;;;;;;;;;;;2132136;27;20034;-48
2022/07/15 06:27:49;;;;;;;;;;;;;;;;;;2131730;27;19973;-49
2022/07/15 06:28:50;;;;;;;;;;;;;;;;;;2131640;27;20022;-48
2022/07/15 06:29:51;;;;;;;;;;;;;;;;;;2131894;27;19923;-48
2022/07/15 06:30:52;;;;;;;;;;;;;;;;;;2131655;27;20044;-48
2022/07/15 06:31:53;;;;;;;;;;;;;;;;;;2131870;27;20590;-44
2022/07/15 06:32:54;;;;;;;;;;;;;;;;;;2131552;27;19930;-45
2022/07/15 06:33:58;;;;;;;;;;;;;;;;;;2131982;27;20021;-44
2022/07/15 06:35:00;;;;;;;;;;;;;;;;;;2131900;27;19930;-45
2022/07/15 06:36:01;;;;;;;;;;;;;;;;;;2131544;27;19923;-45
2022/07/15 06:37:02;;;;;;;;;;;;;;;;;;2131721;27;20019;-45
2022/07/15 06:38:03;;;;;;;;;;;;;;;;;;2131824;27;20423;-44
2022/07/15 06:39:04;;;;;;;;;;;;;;;;;;2131718;27;20295;-44
2022/07/15 06:40:04;;;;;;;;;;;;;;;;;;2131763;27;19931;-45
2022/07/15 06:41:05;;;;;;;;;;;;;;;;;;2132671;27;20018;-48
2022/07/15 06:42:06;;;;;;;;;;;;;;;;;;2131981;27;20087;-44
2022/07/15 06:43:07;;;;;;;;;;;;;;;;;;2131944;27;19977;-49
2022/07/15 06:44:08;;;;;;;;;;;;;;;;;;2131189;27;19966;-47
2022/07/15 06:45:10;;;;;;;;;;;;;;;;;;2131132;27;19927;-48
2022/07/15 06:46:10;;;;;;;;;;;;;;;;;;2131309;27;19930;-45
2022/07/15 06:47:12;;;;;;;;;;;;;;;;;;2136076;27;20314;-45
2022/07/15 06:48:12;;;;;;;;;;;;;;;;;;2140341;27;19929;-49
2022/07/15 06:49:13;;;;;;;;;;;;;;;;;;2140389;27;19972;-45
2022/07/15 06:50:14;;;;;;;;;;;;;;;;;;2140413;27;20236;-45
2022/07/15 06:51:15;;;;;;;;;;;;;;;;;;2140272;27;19965;-44
2022/07/15 06:52:16;;;;;;;;;;;;;;;;;;2140159;27;20013;-46
2022/07/15 06:53:17;;;;;;;;;;;;;;;;;;2140412;27;20328;-44
2022/07/15 06:54:18;;;;;;;;;;;;;;;;;;2140264;27;19948;-46
2022/07/15 06:55:19;;;;;;;;;;;;;;;;;;2140399;27;20307;-48
2022/07/15 06:56:20;;;;;;;;;;;;;;;;;;2140349;27;20009;-49
2022/07/15 06:57:21;;;;;;;;;;;;;;;;;;2140301;27;20368;-48
2022/07/15 06:58:22;;;;;;;;;;;;;;;;;;2140248;27;19922;-48
2022/07/15 06:59:23;;;;;;;;;;;;;;;;;;2140193;27;19923;-48
2022/07/15 07:00:24;;;;;;;;;;;;;;;;;;2140166;27;19966;-49